Time;durP1;ratioP1;P1;durP2;ratioP2;P2;SDS_P1;SDS_P2;PMS_P1;PMS_P2;Temp;Humidity;BMP_temperature;BMP_pressure;BME280_temperature;BME280_humidity;BME280_pressure;Samples;Min_cycle;Max_cycle;Signal;HPM_P1;HPM_P2
2022/04/24 00:01:57;;;;;;;33.10;29.60;;;7.20;99.90;;;;;;5070779;28;20193;-50
2022/04/24 00:04:24;;;;;;;31.60;28.40;;;7.10;99.90;;;;;;5070092;28;20447;-51
2022/04/24 00:06:53;;;;;;;30.37;27.10;;;7.10;99.90;;;;;;5069582;28;20870;-52
2022/04/24 00:09:20;;;;;;;29.60;25.53;;;7.00;99.90;;;;;;5068722;28;20536;-54
2022/04/24 00:11:46;;;;;;;30.97;27.07;;;7.00;99.90;;;;;;5070124;28;20443;-55
2022/04/24 00:14:11;;;;;;;28.67;24.87;;;6.90;99.90;;;;;;5069313;28;20451;-55
2022/04/24 00:16:38;;;;;;;28.43;25.20;;;6.90;99.90;;;;;;5068058;28;20444;-50
2022/04/24 00:19:04;;;;;;;31.10;26.00;;;6.90;99.90;;;;;;5067722;28;21669;-52
2022/04/24 00:21:30;;;;;;;29.47;26.30;;;6.90;99.90;;;;;;5070506;28;20458;-51
2022/04/24 00:23:56;;;;;;;29.87;26.50;;;6.90;99.90;;;;;;5068659;28;20439;-50
2022/04/24 00:26:22;;;;;;;29.90;25.30;;;6.80;99.90;;;;;;5067685;28;20463;-53
2022/04/24 00:28:48;;;;;;;28.13;24.20;;;6.70;99.90;;;;;;5069485;28;20471;-52
2022/04/24 00:31:13;;;;;;;26.10;23.37;;;6.70;99.90;;;;;;5066548;28;20198;-48
2022/04/24 00:33:39;;;;;;;26.37;23.57;;;6.70;99.90;;;;;;5070055;28;20174;-53
2022/04/24 00:36:04;;;;;;;27.47;24.50;;;6.60;99.90;;;;;;5067354;28;20193;-54
2022/04/24 00:38:34;;;;;;;28.77;24.20;;;6.50;99.90;;;;;;5066926;28;20197;-54
2022/04/24 00:40:59;;;;;;;26.53;23.53;;;6.50;99.90;;;;;;5056534;28;20193;-56
2022/04/24 00:43:25;;;;;;;26.80;22.33;;;6.50;99.90;;;;;;5069510;28;20511;-49
2022/04/24 00:45:59;;;;;;;25.07;21.77;;;6.50;99.90;;;;;;5064794;28;20210;-53
2022/04/24 00:48:26;;;;;;;24.42;21.80;;;6.40;99.90;;;;;;5067152;28;20269;-54
2022/04/24 00:50:52;;;;;;;25.73;22.02;;;6.40;99.90;;;;;;5066676;28;20174;-53
2022/04/24 00:53:17;;;;;;;25.00;22.33;;;6.40;99.90;;;;;;5067200;28;20631;-51
2022/04/24 00:55:43;;;;;;;26.87;22.87;;;6.40;99.90;;;;;;5063915;28;20202;-53
2022/04/24 00:58:10;;;;;;;25.63;22.98;;;6.30;99.90;;;;;;5067626;28;20224;-51
2022/04/24 01:00:37;;;;;;;26.67;22.83;;;6.40;99.90;;;;;;5067848;28;20185;-54
2022/04/24 01:03:03;;;;;;;25.20;21.42;;;6.30;99.90;;;;;;5064870;28;20221;-53
2022/04/24 01:05:28;;;;;;;29.63;20.87;;;6.30;99.90;;;;;;5068058;28;20244;-54
2022/04/24 01:07:54;;;;;;;26.10;22.10;;;6.20;99.90;;;;;;5068920;28;20526;-53
2022/04/24 01:10:19;;;;;;;27.90;22.00;;;6.20;99.90;;;;;;5066643;28;20186;-58
2022/04/24 01:12:45;;;;;;;26.10;21.90;;;6.20;99.90;;;;;;5058653;28;20182;-54
2022/04/24 01:15:11;;;;;;;27.53;22.27;;;6.10;99.90;;;;;;5063401;28;20211;-57
2022/04/24 01:17:37;;;;;;;26.80;22.03;;;6.10;99.90;;;;;;5066736;28;20192;-58
2022/04/24 01:20:03;;;;;;;23.60;21.05;;;6.10;99.90;;;;;;5067594;28;20186;-57
2022/04/24 01:22:28;;;;;;;23.87;21.23;;;6.00;99.90;;;;;;5068209;28;20182;-58
2022/04/24 01:24:54;;;;;;;24.37;21.03;;;6.00;99.90;;;;;;5065016;28;20451;-57
2022/04/24 01:27:19;;;;;;;24.90;20.30;;;5.90;99.90;;;;;;5067140;28;20201;-57
2022/04/24 01:29:45;;;;;;;23.30;20.33;;;5.90;99.90;;;;;;5066562;28;20667;-55
2022/04/24 01:32:11;;;;;;;24.50;21.50;;;5.90;99.90;;;;;;5067327;28;20524;-56
2022/04/24 01:34:36;;;;;;;25.90;21.63;;;5.90;99.90;;;;;;5069265;28;20189;-59
2022/04/24 01:37:02;;;;;;;22.50;19.70;;;5.90;99.90;;;;;;5059669;28;20573;-57
2022/04/24 01:39:27;;;;;;;25.47;21.53;;;5.80;99.90;;;;;;5064694;28;20189;-56
2022/04/24 01:41:55;;;;;;;23.80;20.00;;;5.80;99.90;;;;;;5066807;28;20189;-58
2022/04/24 01:44:21;;;;;;;23.15;19.67;;;5.80;99.90;;;;;;5068655;28;20182;-54
2022/04/24 01:46:47;;;;;;;23.20;19.67;;;5.80;99.90;;;;;;5066380;28;20273;-58
2022/04/24 01:49:12;;;;;;;21.80;19.43;;;5.70;99.90;;;;;;5067364;28;20178;-56
2022/04/24 01:51:38;;;;;;;23.90;18.63;;;5.70;99.90;;;;;;5067085;28;20242;-58
2022/04/24 01:54:03;;;;;;;22.83;19.87;;;5.70;99.90;;;;;;5068278;28;20237;-57
2022/04/24 01:56:29;;;;;;;24.67;21.27;;;5.70;99.90;;;;;;5067009;28;20192;-56
2022/04/24 01:58:55;;;;;;;25.90;21.87;;;5.60;99.90;;;;;;5065147;28;20271;-57
2022/04/24 02:01:20;;;;;;;25.03;20.70;;;5.70;99.90;;;;;;5068398;28;20359;-58
2022/04/24 02:03:46;;;;;;;24.07;21.20;;;5.70;99.90;;;;;;5067402;28;20198;-57
2022/04/24 02:06:12;;;;;;;24.60;20.87;;;5.60;99.90;;;;;;5067487;28;20209;-57
2022/04/24 02:08:38;;;;;;;23.92;20.13;;;5.50;99.90;;;;;;5067405;28;20652;-57
2022/04/24 02:11:05;;;;;;;23.60;20.00;;;5.50;99.90;;;;;;5069106;28;20208;-56
2022/04/24 02:13:31;;;;;;;22.40;19.80;;;5.40;99.90;;;;;;5067499;28;20190;-54
2022/04/24 02:15:57;;;;;;;24.15;21.13;;;5.40;99.90;;;;;;5067804;28;20924;-59
2022/04/24 02:18:22;;;;;;;23.30;19.70;;;5.30;99.90;;;;;;5061676;28;20247;-57
2022/04/24 02:20:48;;;;;;;22.13;19.47;;;5.30;99.90;;;;;;5064341;28;20186;-57
2022/04/24 02:23:13;;;;;;;24.70;19.90;;;5.20;99.90;;;;;;5068183;28;20189;-58
2022/04/24 02:25:39;;;;;;;24.13;19.80;;;5.20;99.90;;;;;;5066857;28;20266;-57
2022/04/24 02:28:04;;;;;;;23.60;19.77;;;5.10;99.90;;;;;;5065542;28;20181;-55
2022/04/24 02:30:30;;;;;;;25.00;19.73;;;5.10;99.90;;;;;;5066177;28;20216;-58
2022/04/24 02:33:00;;;;;;;25.10;20.27;;;5.10;99.90;;;;;;5066630;28;20530;-55
2022/04/24 02:35:26;;;;;;;23.20;19.52;;;5.10;99.90;;;;;;5066518;28;20186;-58
2022/04/24 02:37:52;;;;;;;25.00;21.23;;;5.00;99.90;;;;;;5066581;28;20185;-58
2022/04/24 02:40:24;;;;;;;23.70;19.80;;;5.00;99.90;;;;;;5065639;28;20182;-58
2022/04/24 02:42:51;;;;;;;23.73;18.73;;;5.00;99.90;;;;;;5068343;28;20412;-57
2022/04/24 02:45:18;;;;;;;27.33;21.10;;;5.00;99.90;;;;;;5065782;28;20185;-58
2022/04/24 02:47:44;;;;;;;23.25;19.50;;;4.90;99.90;;;;;;5070055;28;20651;-58
2022/04/24 02:50:10;;;;;;;24.80;21.43;;;4.90;99.90;;;;;;5070597;28;20189;-59
2022/04/24 02:52:48;;;;;;;25.00;21.20;;;4.90;99.90;;;;;;5067344;28;20431;-58
2022/04/24 02:55:15;;;;;;;24.98;20.73;;;4.80;99.90;;;;;;5070634;28;20193;-58
2022/04/24 02:57:41;;;;;;;25.17;20.80;;;4.80;99.90;;;;;;5069380;28;20239;-57
2022/04/24 03:00:07;;;;;;;26.77;20.60;;;4.70;99.90;;;;;;5070221;28;20186;-57
2022/04/24 03:02:39;;;;;;;25.38;21.08;;;4.70;99.90;;;;;;5071180;28;20462;-58
2022/04/24 03:05:04;;;;;;;25.67;21.00;;;4.60;99.90;;;;;;5069468;28;20185;-59
2022/04/24 03:07:30;;;;;;;23.37;20.87;;;4.60;99.90;;;;;;5070851;28;20917;-53
2022/04/24 03:09:55;;;;;;;25.27;20.90;;;4.60;99.90;;;;;;5069781;28;20751;-58
2022/04/24 03:12:21;;;;;;;23.77;20.33;;;4.50;99.90;;;;;;5071286;28;20181;-58
2022/04/24 03:14:46;;;;;;;24.53;19.57;;;4.50;99.90;;;;;;5071202;28;20185;-58
2022/04/24 03:17:12;;;;;;;27.33;20.50;;;4.50;99.90;;;;;;5070867;28;20193;-56
2022/04/24 03:19:37;;;;;;;25.20;20.50;;;4.50;99.90;;;;;;5071609;28;20204;-57
2022/04/24 03:22:03;;;;;;;22.80;19.80;;;4.50;99.90;;;;;;5070672;28;20700;-58
2022/04/24 03:24:29;;;;;;;25.50;21.17;;;4.40;99.90;;;;;;5068908;28;20193;-55
2022/04/24 03:26:54;;;;;;;27.17;21.53;;;4.50;99.90;;;;;;5067930;28;20213;-56
2022/04/24 03:29:20;;;;;;;25.73;21.20;;;4.40;99.90;;;;;;5071836;28;20181;-55
2022/04/24 03:31:45;;;;;;;21.67;18.73;;;4.40;99.90;;;;;;5069897;28;20229;-57
2022/04/24 03:34:11;;;;;;;21.93;18.83;;;4.40;99.90;;;;;;5071235;28;20200;-57
2022/04/24 03:36:36;;;;;;;27.07;21.13;;;4.40;99.90;;;;;;5066698;28;20189;-58
2022/04/24 03:39:02;;;;;;;24.70;20.90;;;4.50;99.90;;;;;;5071578;28;20562;-57
2022/04/24 03:41:27;;;;;;;24.50;20.90;;;4.50;99.90;;;;;;5069907;28;20215;-56
2022/04/24 03:43:53;;;;;;;26.73;21.47;;;4.50;99.90;;;;;;5069842;28;20229;-59
2022/04/24 03:46:18;;;;;;;24.67;20.30;;;4.50;99.90;;;;;;5067936;28;20259;-58
2022/04/24 03:48:44;;;;;;;25.00;20.27;;;4.50;99.90;;;;;;5068668;28;20642;-56
2022/04/24 03:51:10;;;;;;;23.80;20.73;;;4.50;99.90;;;;;;5070173;28;20174;-56
2022/04/24 03:53:36;;;;;;;24.15;20.02;;;4.40;99.90;;;;;;5070172;28;20225;-57
2022/04/24 03:56:01;;;;;;;25.13;20.20;;;4.40;99.90;;;;;;5067993;28;20201;-54
2022/04/24 03:58:27;;;;;;;26.00;20.50;;;4.40;99.90;;;;;;5069232;28;20189;-58
2022/04/24 04:00:52;;;;;;;24.87;19.80;;;4.40;99.90;;;;;;5070418;28;20595;-57
2022/04/24 04:03:18;;;;;;;24.50;19.50;;;4.40;99.90;;;;;;5069981;28;20273;-58
2022/04/24 04:05:43;;;;;;;22.80;19.47;;;4.40;99.90;;;;;;5071331;28;20659;-57
2022/04/24 04:08:09;;;;;;;27.73;20.83;;;4.50;99.90;;;;;;5069709;28;20182;-58
2022/04/24 04:10:35;;;;;;;25.17;21.13;;;4.50;99.90;;;;;;5070804;28;20190;-58
2022/04/24 04:13:05;;;;;;;24.55;19.80;;;4.60;99.90;;;;;;5069359;28;20245;-55
2022/04/24 04:15:32;;;;;;;23.05;19.45;;;4.70;99.90;;;;;;5069690;28;20192;-59
2022/04/24 04:17:57;;;;;;;24.55;20.55;;;4.80;99.90;;;;;;5068255;28;20194;-55
2022/04/24 04:20:23;;;;;;;23.10;19.20;;;4.90;99.90;;;;;;5069790;28;20190;-58
2022/04/24 04:22:51;;;;;;;23.90;19.07;;;5.00;99.90;;;;;;5068682;28;20278;-58
2022/04/24 04:25:21;;;;;;;23.92;19.80;;;5.10;99.90;;;;;;5069266;28;20189;-58
2022/04/24 04:27:47;;;;;;;23.63;20.15;;;5.30;99.90;;;;;;5069728;28;20276;-57
2022/04/24 04:30:13;;;;;;;23.00;19.67;;;5.30;99.90;;;;;;5068281;28;20387;-57
2022/04/24 04:32:38;;;;;;;22.60;19.10;;;5.40;99.90;;;;;;5069610;28;20912;-55
2022/04/24 04:35:05;;;;;;;22.90;17.80;;;5.40;99.90;;;;;;5070047;28;20428;-58
2022/04/24 04:37:32;;;;;;;20.65;17.63;;;5.50;99.90;;;;;;5069201;28;20450;-58
2022/04/24 04:39:58;;;;;;;20.95;17.58;;;5.50;99.90;;;;;;5068169;28;20225;-59
2022/04/24 04:42:23;;;;;;;22.87;18.37;;;5.50;99.90;;;;;;5067106;28;20284;-58
2022/04/24 04:44:49;;;;;;;22.30;18.80;;;5.50;99.90;;;;;;5068777;28;20436;-60
2022/04/24 04:47:14;;;;;;;21.37;19.07;;;5.50;99.90;;;;;;5066789;28;20573;-58
2022/04/24 04:49:40;;;;;;;22.57;19.77;;;5.60;99.90;;;;;;5066696;28;20187;-59
2022/04/24 04:52:05;;;;;;;25.30;18.80;;;5.60;99.90;;;;;;5069767;28;20182;-59
2022/04/24 04:54:31;;;;;;;21.57;18.97;;;5.60;99.90;;;;;;5068430;28;20594;-58
2022/04/24 04:56:56;;;;;;;22.30;18.90;;;5.70;99.90;;;;;;5067350;28;20212;-52
2022/04/24 04:59:22;;;;;;;20.00;17.87;;;5.80;99.90;;;;;;5068982;28;20369;-57
2022/04/24 05:01:47;;;;;;;22.20;19.83;;;5.90;99.90;;;;;;5066141;28;20209;-58
2022/04/24 05:04:13;;;;;;;20.43;17.80;;;6.00;99.90;;;;;;5069215;28;20190;-57
2022/04/24 05:06:38;;;;;;;21.70;18.23;;;6.10;99.90;;;;;;5068635;28;20209;-58
2022/04/24 05:09:05;;;;;;;19.30;16.50;;;6.30;99.90;;;;;;5067727;28;20660;-58
2022/04/24 05:11:31;;;;;;;20.93;17.27;;;6.50;99.90;;;;;;5062308;28;20374;-57
2022/04/24 05:13:56;;;;;;;20.07;17.73;;;6.60;99.90;;;;;;5069052;28;20614;-57
2022/04/24 05:16:22;;;;;;;19.87;17.77;;;6.70;99.90;;;;;;5068358;28;20482;-58
2022/04/24 05:18:47;;;;;;;21.10;17.87;;;6.80;99.90;;;;;;5069770;28;20304;-58
2022/04/24 05:21:13;;;;;;;19.33;17.20;;;6.90;99.90;;;;;;5067102;28;20209;-58
2022/04/24 05:23:42;;;;;;;21.40;17.00;;;6.90;99.90;;;;;;5067701;28;20200;-57
2022/04/24 05:26:07;;;;;;;21.27;18.60;;;7.00;99.90;;;;;;5065872;28;20228;-57
2022/04/24 05:28:33;;;;;;;21.13;17.33;;;7.00;99.90;;;;;;5066058;28;20450;-58
2022/04/24 05:30:58;;;;;;;19.43;17.10;;;7.10;99.90;;;;;;5068562;28;20177;-58
2022/04/24 05:33:24;;;;;;;18.07;16.07;;;7.30;99.90;;;;;;5065207;28;20186;-57
2022/04/24 05:35:50;;;;;;;21.80;17.00;;;7.50;99.90;;;;;;5066468;28;20173;-57
2022/04/24 05:38:15;;;;;;;19.30;17.40;;;7.60;99.90;;;;;;5067675;28;20664;-57
2022/04/24 05:40:41;;;;;;;18.80;16.83;;;7.60;99.90;;;;;;5066117;28;20197;-58
2022/04/24 05:43:06;;;;;;;18.30;16.40;;;7.60;99.90;;;;;;5065744;28;20667;-58
2022/04/24 05:45:32;;;;;;;18.60;16.63;;;7.70;99.90;;;;;;5068670;28;20204;-58
2022/04/24 05:47:58;;;;;;;18.67;16.67;;;7.80;99.90;;;;;;5065868;28;20193;-57
2022/04/24 05:50:25;;;;;;;18.50;16.70;;;7.80;99.90;;;;;;5068512;28;20902;-55
2022/04/24 05:52:54;;;;;;;19.60;17.60;;;7.90;99.90;;;;;;5068272;28;20655;-59
2022/04/24 05:55:20;;;;;;;19.30;17.30;;;8.10;99.90;;;;;;5064806;28;20435;-55
2022/04/24 05:57:49;;;;;;;18.63;16.70;;;8.20;99.90;;;;;;5067879;28;20451;-58
2022/04/24 06:00:16;;;;;;;18.00;16.17;;;8.30;99.90;;;;;;5066804;28;20269;-54
2022/04/24 06:02:41;;;;;;;17.53;15.73;;;8.30;99.90;;;;;;5067631;28;20435;-59
2022/04/24 06:05:08;;;;;;;19.30;16.43;;;8.30;99.90;;;;;;5067218;28;20451;-57
2022/04/24 06:07:33;;;;;;;19.57;17.57;;;8.30;99.90;;;;;;5066559;28;20274;-58
2022/04/24 06:09:59;;;;;;;19.10;17.10;;;8.40;99.90;;;;;;5066176;28;20515;-58
2022/04/24 06:12:24;;;;;;;19.90;17.90;;;8.40;99.90;;;;;;5067752;28;20300;-57
2022/04/24 06:14:50;;;;;;;20.83;18.73;;;8.50;99.90;;;;;;5064650;28;20182;-58
2022/04/24 06:17:15;;;;;;;18.80;16.90;;;8.50;99.90;;;;;;5064523;28;20543;-56
2022/04/24 06:19:41;;;;;;;19.00;17.10;;;8.60;99.90;;;;;;5065105;28;20185;-59
2022/04/24 06:22:06;;;;;;;18.03;16.20;;;8.60;99.90;;;;;;5067910;28;20269;-58
2022/04/24 06:24:32;;;;;;;18.87;16.87;;;8.70;99.90;;;;;;5067363;28;20261;-57
2022/04/24 06:26:57;;;;;;;18.17;16.37;;;8.90;99.90;;;;;;5066250;28;20217;-57
2022/04/24 06:29:23;;;;;;;19.17;17.17;;;9.00;99.90;;;;;;5068220;28;20651;-58
2022/04/24 06:31:48;;;;;;;18.67;16.77;;;9.10;99.90;;;;;;5066989;28;20522;-57
2022/04/24 06:34:14;;;;;;;20.10;17.13;;;9.00;99.90;;;;;;5068054;28;20177;-53
2022/04/24 06:36:39;;;;;;;19.10;17.17;;;9.10;99.90;;;;;;5066218;28;20190;-59
2022/04/24 06:39:05;;;;;;;18.93;17.03;;;9.20;99.90;;;;;;5067425;28;20197;-56
2022/04/24 06:41:30;;;;;;;19.10;17.13;;;9.30;99.90;;;;;;5067215;28;20268;-58
2022/04/24 06:43:56;;;;;;;18.53;16.80;;;9.60;99.90;;;;;;5068525;28;20221;-56
2022/04/24 06:46:23;;;;;;;19.27;17.37;;;9.80;99.90;;;;;;5064437;28;20205;-56
2022/04/24 06:48:49;;;;;;;19.30;17.30;;;9.90;99.90;;;;;;5065281;28;20289;-58
2022/04/24 06:51:15;;;;;;;20.13;18.23;;;10.10;99.90;;;;;;5063843;28;20444;-57
2022/04/24 06:53:41;;;;;;;21.00;18.90;;;10.30;99.90;;;;;;5065580;28;20295;-59
2022/04/24 06:56:07;;;;;;;18.70;16.83;;;10.50;99.90;;;;;;5047646;28;20232;-55
2022/04/24 06:58:33;;;;;;;19.97;17.83;;;10.60;99.90;;;;;;5059939;28;20538;-53
2022/04/24 07:00:58;;;;;;;20.00;18.10;;;10.80;99.90;;;;;;5066984;28;20452;-54
2022/04/24 07:03:26;;;;;;;19.00;17.30;;;10.80;99.90;;;;;;5066093;28;20190;-54
2022/04/24 07:06:00;;;;;;;18.47;16.70;;;11.00;99.90;;;;;;5066449;28;20189;-53
2022/04/24 07:08:26;;;;;;;19.50;17.60;;;11.10;98.80;;;;;;5065665;28;20427;-52
2022/04/24 07:10:55;;;;;;;19.00;17.30;;;11.10;98.90;;;;;;5064459;28;20443;-56
2022/04/24 07:13:21;;;;;;;18.47;16.77;;;11.20;99.60;;;;;;5066016;28;21079;-53
2022/04/24 07:15:47;;;;;;;20.50;18.50;;;11.40;98.60;;;;;;5066525;28;20439;-55
2022/04/24 07:18:12;;;;;;;19.83;17.93;;;11.60;98.30;;;;;;5066493;28;20432;-54
2022/04/24 07:20:38;;;;;;;18.37;16.50;;;11.70;97.80;;;;;;5064660;28;20190;-53
2022/04/24 07:23:05;;;;;;;19.93;18.10;;;12.00;97.60;;;;;;5070322;28;20181;-55
2022/04/24 07:25:40;;;;;;;19.50;17.53;;;12.10;97.20;;;;;;5063228;28;20178;-53
2022/04/24 07:28:07;;;;;;;19.40;17.50;;;12.40;97.20;;;;;;5063430;28;20477;-52
2022/04/24 07:30:33;;;;;;;18.90;17.20;;;12.70;97.00;;;;;;5060578;28;20431;-54
2022/04/24 07:32:59;;;;;;;19.07;17.17;;;12.90;95.70;;;;;;5068603;28;20947;-54
2022/04/24 07:35:27;;;;;;;18.23;16.60;;;13.20;94.10;;;;;;5069604;28;20182;-53
2022/04/24 07:37:53;;;;;;;18.97;17.17;;;13.40;93.80;;;;;;5067307;28;20435;-55
2022/04/24 07:40:21;;;;;;;19.17;17.30;;;13.70;92.90;;;;;;5068975;28;21004;-54
2022/04/24 07:43:03;;;;;;;20.17;18.37;;;13.90;91.90;;;;;;5066727;28;20427;-52
2022/04/24 07:45:33;;;;;;;23.17;21.07;;;14.10;91.50;;;;;;5067697;28;20481;-55
2022/04/24 07:47:59;;;;;;;19.80;18.10;;;14.10;91.60;;;;;;5065075;28;20443;-55
2022/04/24 07:50:27;;;;;;;17.90;16.23;;;14.30;91.40;;;;;;5066596;28;20942;-56
2022/04/24 07:52:53;;;;;;;18.53;16.93;;;14.50;90.60;;;;;;5069044;28;20436;-57
2022/04/24 07:55:22;;;;;;;20.50;18.70;;;14.80;90.30;;;;;;5070825;28;20863;-54
2022/04/24 07:57:48;;;;;;;22.30;20.27;;;15.00;87.90;;;;;;5067903;28;20506;-54
2022/04/24 08:00:20;;;;;;;21.13;19.07;;;14.90;88.20;;;;;;5067593;28;20543;-54
2022/04/24 08:02:48;;;;;;;22.40;20.27;;;15.10;88.30;;;;;;5069733;28;20519;-56
2022/04/24 08:05:27;;;;;;;21.40;19.40;;;15.20;86.10;;;;;;5069934;28;20490;-53
2022/04/24 08:07:55;;;;;;;22.10;20.00;;;15.40;85.10;;;;;;5068039;28;20440;-52
2022/04/24 08:10:22;;;;;;;22.03;19.93;;;15.60;83.40;;;;;;5070563;28;20498;-53
2022/04/24 08:12:48;;;;;;;22.73;20.60;;;15.50;81.80;;;;;;5066352;28;20545;-54
2022/04/24 08:15:14;;;;;;;21.30;19.40;;;15.60;82.00;;;;;;5064523;28;20510;-55
2022/04/24 08:17:40;;;;;;;21.10;19.13;;;15.90;82.50;;;;;;5066581;28;20441;-53
2022/04/24 08:20:07;;;;;;;21.40;19.40;;;16.00;81.70;;;;;;5066971;28;20442;-53
2022/04/24 08:22:46;;;;;;;19.33;17.60;;;16.10;79.50;;;;;;5069468;28;20195;-56
2022/04/24 08:25:18;;;;;;;16.33;14.83;;;16.00;75.60;;;;;;5067247;28;20433;-52
2022/04/24 08:27:44;;;;;;;17.70;16.20;;;16.00;72.50;;;;;;5068833;28;20470;-53
2022/04/24 08:30:11;;;;;;;16.80;15.50;;;16.00;70.70;;;;;;5069232;28;20465;-52
2022/04/24 08:32:38;;;;;;;16.73;15.33;;;16.10;70.30;;;;;;5067770;28;20436;-53
2022/04/24 08:35:06;;;;;;;16.83;15.43;;;16.00;68.10;;;;;;5068352;28;20494;-55
2022/04/24 08:37:31;;;;;;;16.20;14.90;;;16.10;67.70;;;;;;5068421;28;20460;-56
2022/04/24 08:39:57;;;;;;;16.20;14.80;;;16.00;65.90;;;;;;5065414;28;20439;-54
2022/04/24 08:42:22;;;;;;;16.50;15.07;;;16.00;66.00;;;;;;5069376;28;20292;-54
2022/04/24 08:44:52;;;;;;;15.97;14.57;;;16.00;66.80;;;;;;5063641;28;20185;-51
2022/04/24 08:47:18;;;;;;;16.07;14.70;;;16.00;66.40;;;;;;5062627;28;20685;-48
2022/04/24 08:49:45;;;;;;;15.43;14.13;;;16.20;65.60;;;;;;5065993;28;20492;-55
2022/04/24 08:52:12;;;;;;;16.30;15.00;;;16.30;64.30;;;;;;5064384;28;20495;-55
2022/04/24 08:54:41;;;;;;;14.33;13.00;;;16.30;63.30;;;;;;5073596;28;20474;-55
2022/04/24 08:57:12;;;;;;;14.27;13.07;;;16.50;62.20;;;;;;5069383;28;21125;-54
2022/04/24 08:59:38;;;;;;;14.47;13.27;;;16.60;60.50;;;;;;5067621;28;20442;-55
2022/04/24 09:02:05;;;;;;;15.93;14.43;;;16.60;61.50;;;;;;5060758;28;20446;-53
2022/04/24 09:04:36;;;;;;;15.00;13.80;;;16.90;60.10;;;;;;5067230;28;20195;-55
2022/04/24 09:07:05;;;;;;;14.60;13.40;;;16.90;59.00;;;;;;5063254;28;20535;-53
2022/04/24 09:09:38;;;;;;;15.80;14.50;;;16.90;58.70;;;;;;5064514;28;20477;-53
2022/04/24 09:12:09;;;;;;;15.03;13.83;;;17.10;57.60;;;;;;5076036;28;20477;-55
2022/04/24 09:14:35;;;;;;;15.10;13.80;;;17.00;57.70;;;;;;5066178;28;21065;-53
2022/04/24 09:17:14;;;;;;;16.83;15.33;;;17.10;58.10;;;;;;5066618;28;20442;-57
2022/04/24 09:19:40;;;;;;;17.63;15.73;;;17.10;57.10;;;;;;5066402;28;20195;-55
2022/04/24 09:22:08;;;;;;;17.13;15.63;;;17.00;57.10;;;;;;5069860;28;20791;-54
2022/04/24 09:25:00;;;;;;;16.57;15.17;;;16.90;56.70;;;;;;5067327;28;20195;-52
2022/04/24 09:27:28;;;;;;;17.30;15.80;;;16.80;57.10;;;;;;5068011;28;20476;-53
2022/04/24 09:30:00;;;;;;;16.57;15.07;;;16.80;57.10;;;;;;5067587;28;20431;-53
2022/04/24 09:32:28;;;;;;;16.73;15.40;;;16.80;56.80;;;;;;5069536;28;20998;-55
2022/04/24 09:34:54;;;;;;;17.57;15.97;;;16.60;57.50;;;;;;5067167;28;20430;-52
2022/04/24 09:37:20;;;;;;;16.57;15.20;;;16.40;57.10;;;;;;5067911;28;20457;-56
2022/04/24 09:39:46;;;;;;;15.97;14.67;;;16.50;57.00;;;;;;5066686;28;20468;-54
2022/04/24 09:42:14;;;;;;;16.40;15.10;;;16.40;57.80;;;;;;5068184;28;20180;-55
2022/04/24 09:44:42;;;;;;;14.83;13.30;;;16.20;57.90;;;;;;5067847;28;20466;-52
2022/04/24 09:47:09;;;;;;;15.43;14.07;;;16.20;57.80;;;;;;5067862;28;20465;-55
2022/04/24 09:49:40;;;;;;;16.40;15.10;;;16.20;58.70;;;;;;5067304;28;20796;-52
2022/04/24 09:52:11;;;;;;;15.60;14.10;;;16.20;57.60;;;;;;5067684;28;20464;-49
2022/04/24 09:54:39;;;;;;;16.17;14.70;;;16.10;57.50;;;;;;5068338;28;20468;-49
2022/04/24 09:57:06;;;;;;;15.30;14.00;;;16.00;59.20;;;;;;5068299;28;20934;-51
2022/04/24 09:59:32;;;;;;;17.27;15.67;;;15.90;62.50;;;;;;5067546;28;20442;-54
2022/04/24 10:01:59;;;;;;;16.07;14.77;;;15.80;65.20;;;;;;5067779;28;21000;-52
2022/04/24 10:04:24;;;;;;;17.60;16.10;;;15.70;66.30;;;;;;5069708;28;20444;-53
2022/04/24 10:06:51;;;;;;;17.47;16.00;;;15.60;66.40;;;;;;5068783;28;20496;-50
2022/04/24 10:09:17;;;;;;;16.77;15.37;;;15.50;65.20;;;;;;5068305;28;20808;-56
2022/04/24 10:11:43;;;;;;;17.83;16.30;;;15.50;65.10;;;;;;5064415;28;20440;-50
2022/04/24 10:14:12;;;;;;;18.27;16.60;;;15.40;65.80;;;;;;5069124;28;20434;-53
2022/04/24 10:17:02;;;;;;;17.90;16.30;;;15.30;65.90;;;;;;5068095;28;20182;-53
2022/04/24 10:19:48;;;;;;;17.10;15.60;;;15.40;65.50;;;;;;5069039;28;20420;-54
2022/04/24 10:22:19;;;;;;;17.20;15.70;;;15.30;65.00;;;;;;5067008;28;20524;-53
2022/04/24 10:24:45;;;;;;;18.10;16.27;;;15.20;65.00;;;;;;5068878;28;20453;-54
2022/04/24 10:27:12;;;;;;;17.37;15.87;;;15.00;65.30;;;;;;5067547;28;20444;-52
2022/04/24 10:29:50;;;;;;;16.33;14.93;;;15.00;66.40;;;;;;5069037;28;20416;-55
2022/04/24 10:32:33;;;;;;;14.83;13.63;;;15.00;65.80;;;;;;5067643;28;20422;-55
2022/04/24 10:34:59;;;;;;;15.13;13.77;;;14.90;65.60;;;;;;5049182;28;20397;-54
2022/04/24 10:37:34;;;;;;;15.50;14.20;;;14.80;65.30;;;;;;5061213;28;21124;-56
2022/04/24 10:40:00;;;;;;;15.90;14.50;;;14.80;65.90;;;;;;5065877;28;20442;-52
2022/04/24 10:42:35;;;;;;;15.70;14.30;;;14.80;66.80;;;;;;5067969;28;20432;-55
2022/04/24 10:45:07;;;;;;;15.40;13.93;;;14.80;66.00;;;;;;5068551;28;20443;-50
2022/04/24 10:47:43;;;;;;;15.20;13.80;;;14.80;66.90;;;;;;5068073;28;20475;-55
2022/04/24 10:50:09;;;;;;;16.83;15.30;;;14.70;66.50;;;;;;5067945;28;20435;-52
2022/04/24 10:52:48;;;;;;;17.83;16.23;;;14.60;67.60;;;;;;5068503;28;20449;-54
2022/04/24 10:55:16;;;;;;;15.43;14.10;;;14.40;68.10;;;;;;5067317;28;20440;-50
2022/04/24 10:57:54;;;;;;;16.17;14.57;;;14.50;68.10;;;;;;5068406;28;20422;-54
2022/04/24 11:00:24;;;;;;;15.30;14.00;;;14.40;69.10;;;;;;5067987;28;20462;-50
2022/04/24 11:02:51;;;;;;;16.07;14.57;;;14.30;70.70;;;;;;5068767;28;20407;-52
2022/04/24 11:05:24;;;;;;;15.80;14.10;;;14.30;77.30;;;;;;5069026;28;20435;-50
2022/04/24 11:08:03;;;;;;;15.83;14.47;;;14.20;80.80;;;;;;5072013;28;20447;-53
2022/04/24 11:10:28;;;;;;;15.97;14.47;;;14.00;84.60;;;;;;5069592;28;20975;-55
2022/04/24 11:12:55;;;;;;;15.47;14.10;;;13.80;90.80;;;;;;5065535;28;20440;-54
2022/04/24 11:15:21;;;;;;;16.57;15.07;;;13.50;93.50;;;;;;5064005;28;20235;-55
2022/04/24 11:17:47;;;;;;;17.07;15.50;;;13.30;96.50;;;;;;5071127;28;20560;-51
2022/04/24 11:20:14;;;;;;;15.73;14.33;;;13.10;99.10;;;;;;5071238;28;20428;-50
2022/04/24 11:22:51;;;;;;;17.40;15.73;;;13.00;99.90;;;;;;5071487;28;20705;-51
2022/04/24 11:25:19;;;;;;;15.53;13.97;;;12.90;99.90;;;;;;5071188;28;20461;-48
2022/04/24 11:27:49;;;;;;;14.63;13.23;;;12.70;99.90;;;;;;5071402;28;20470;-53
2022/04/24 11:30:16;;;;;;;16.43;14.93;;;12.70;99.90;;;;;;5071432;28;20420;-52
2022/04/24 11:33:06;;;;;;;17.03;15.53;;;12.50;99.90;;;;;;5071386;28;20424;-60
2022/04/24 11:35:36;;;;;;;18.17;16.40;;;12.50;99.90;;;;;;5064606;28;20443;-54
2022/04/24 11:38:12;;;;;;;16.83;15.23;;;12.40;99.90;;;;;;5065568;28;20420;-54
2022/04/24 11:40:44;;;;;;;17.63;15.93;;;12.30;99.90;;;;;;5067003;28;20431;-59
2022/04/24 11:43:09;;;;;;;17.73;15.90;;;12.30;99.90;;;;;;5064648;28;20519;-56
2022/04/24 11:51:16;;;;;;;17.73;16.03;;;12.30;99.90;;;;;;5069611;28;20442;-57
2022/04/24 11:53:44;;;;;;;19.33;17.53;;;12.30;99.90;;;;;;5067805;28;21395;-56
2022/04/24 11:56:15;;;;;;;18.83;16.87;;;12.30;99.90;;;;;;5067466;28;20431;-55
2022/04/24 11:58:44;;;;;;;19.30;17.30;;;12.30;99.90;;;;;;5068445;28;20428;-53
2022/04/24 12:01:13;;;;;;;17.90;16.30;;;12.30;99.90;;;;;;5066420;28;20481;-53
2022/04/24 12:03:43;;;;;;;18.93;17.07;;;12.40;99.90;;;;;;5063624;28;20443;-57
2022/04/24 12:06:13;;;;;;;18.93;17.13;;;12.30;99.90;;;;;;5069272;28;20518;-55
2022/04/24 12:08:39;;;;;;;18.10;16.40;;;12.30;99.90;;;;;;5068537;28;20444;-54
2022/04/24 12:11:06;;;;;;;18.77;16.87;;;12.30;99.90;;;;;;5068598;28;20527;-55
2022/04/24 12:13:32;;;;;;;18.80;16.97;;;12.30;99.90;;;;;;5069783;28;20419;-56
2022/04/24 12:15:58;;;;;;;19.50;17.60;;;12.20;99.90;;;;;;5064563;28;20518;-49
2022/04/24 12:18:25;;;;;;;19.03;17.13;;;12.30;99.90;;;;;;5065015;28;20466;-55
2022/04/24 12:20:51;;;;;;;18.63;16.87;;;12.40;99.90;;;;;;5068906;28;20601;-55
2022/04/24 12:23:17;;;;;;;19.30;17.50;;;12.40;99.90;;;;;;5067248;28;20447;-49
2022/04/24 12:25:47;;;;;;;17.87;16.10;;;12.50;99.90;;;;;;5069016;28;20435;-53
2022/04/24 12:28:25;;;;;;;19.03;17.23;;;12.60;99.90;;;;;;5068764;28;22208;-55
2022/04/24 12:30:51;;;;;;;18.57;16.77;;;12.60;99.90;;;;;;5067916;28;20592;-54
2022/04/24 12:33:17;;;;;;;17.60;16.00;;;12.60;99.90;;;;;;5067897;28;20492;-55
2022/04/24 12:35:43;;;;;;;20.07;18.07;;;12.60;99.90;;;;;;5067300;28;20284;-54
2022/04/24 12:38:16;;;;;;;20.17;18.00;;;12.50;99.90;;;;;;5067455;28;20182;-56
2022/04/24 12:40:53;;;;;;;19.33;17.47;;;12.50;99.90;;;;;;5063664;28;20447;-53